createdAt,value
2023-05-01T00:00:12.334Z,100739.59
2023-05-01T00:01:07.211Z,100754.84
2023-05-01T00:01:47.340Z,100756.56
2023-05-01T00:02:27.281Z,100757.47
2023-05-01T00:03:07.339Z,100760.50
2023-05-01T00:03:47.404Z,100756.69
2023-05-01T00:04:27.329Z,100745.38
2023-05-01T00:05:10.318Z,100751.03
2023-05-01T00:05:53.671Z,100763.72
2023-05-01T00:06:35.281Z,100732.88
2023-05-01T00:07:15.381Z,100763.81
2023-05-01T00:07:55.198Z,100755.97
2023-05-01T00:08:35.305Z,100750.56
2023-05-01T00:09:16.185Z,100751.78
2023-05-01T00:09:57.702Z,100762.34
2023-05-01T00:10:38.237Z,100766.25
2023-05-01T00:11:18.575Z,100753.88
2023-05-01T00:12:00.179Z,100730.94
2023-05-01T00:12:40.313Z,100729.56
2023-05-01T00:13:20.197Z,100754.03
2023-05-01T00:14:00.271Z,100751.00
2023-05-01T00:14:40.201Z,100753.44
2023-05-01T00:15:20.353Z,100740.66
2023-05-01T00:16:02.297Z,100744.34
2023-05-01T00:16:42.610Z,100736.09
2023-05-01T00:17:23.267Z,100732.41
2023-05-01T00:18:03.409Z,100753.56
2023-05-01T00:18:44.191Z,100735.69
2023-05-01T00:19:24.281Z,100746.63
2023-05-01T00:20:05.225Z,100743.34
2023-05-01T00:20:45.271Z,100749.34
2023-05-01T00:21:25.221Z,100748.50
2023-05-01T00:22:05.311Z,100745.06
2023-05-01T00:22:45.179Z,100753.75
2023-05-01T00:23:26.360Z,100748.06
2023-05-01T00:24:06.224Z,100748.09
2023-05-01T00:24:48.937Z,100742.09
2023-05-01T00:25:29.202Z,100747.25
2023-05-01T00:26:23.300Z,100750.69
2023-05-01T00:27:03.161Z,100743.69
2023-05-01T00:27:43.426Z,100752.44
2023-05-01T00:28:26.271Z,100745.41
2023-05-01T00:29:06.325Z,100742.59
2023-05-01T00:29:47.248Z,100748.75
2023-05-01T00:30:30.186Z,100747.03
2023-05-01T00:31:11.190Z,100738.41
2023-05-01T00:31:52.291Z,100743.56
2023-05-01T00:32:26.430Z,100737.75
2023-05-01T00:33:13.190Z,100745.25
2023-05-01T00:33:47.386Z,100743.19
2023-05-01T00:34:41.250Z,100728.31
2023-05-01T00:35:35.244Z,100731.00
2023-05-01T00:36:29.191Z,100747.72
2023-05-01T00:37:16.246Z,100727.59
2023-05-01T00:37:50.676Z,100726.81
2023-05-01T00:38:37.180Z,100739.09
2023-05-01T00:39:12.224Z,100746.22
2023-05-01T00:39:59.277Z,100737.34
2023-05-01T00:40:33.251Z,100733.66
2023-05-01T00:41:20.158Z,100732.06
2023-05-01T00:41:54.894Z,100744.25
2023-05-01T00:42:42.328Z,100740.56
2023-05-01T00:43:22.402Z,100729.00
2023-05-01T00:44:02.183Z,100739.84
2023-05-01T00:44:42.259Z,100734.00
2023-05-01T00:45:22.177Z,100742.97
2023-05-01T00:46:02.537Z,100742.88
2023-05-01T00:46:43.162Z,100743.72
2023-05-01T00:47:23.337Z,100741.16
2023-05-01T00:48:04.233Z,100732.88
2023-05-01T00:48:59.186Z,100738.81
2023-05-01T00:49:56.499Z,100738.56
2023-05-01T00:50:50.202Z,100736.09
2023-05-01T00:51:45.174Z,100737.09
2023-05-01T00:52:39.210Z,100733.63
2023-05-01T00:53:27.176Z,100743.94
2023-05-01T00:54:01.583Z,100735.72
2023-05-01T00:54:48.202Z,100732.13
2023-05-01T00:55:22.232Z,100733.88
2023-05-01T00:56:10.167Z,100711.38
2023-05-01T00:56:44.258Z,100736.56
2023-05-01T00:57:32.179Z,100707.56
2023-05-01T00:58:07.587Z,100715.94
2023-05-01T00:58:48.193Z,100713.22
2023-05-01T00:59:29.044Z,100714.97
2023-05-01T01:00:12.146Z,100692.56
2023-05-01T01:00:52.334Z,100726.97
2023-05-01T01:01:32.154Z,100715.53
2023-05-01T01:02:15.257Z,100728.22
2023-05-01T01:02:56.275Z,100723.28
2023-05-01T01:03:36.303Z,100723.16
2023-05-01T01:04:17.321Z,100729.06
2023-05-01T01:04:57.305Z,100727.25
2023-05-01T01:05:39.147Z,100721.56
2023-05-01T01:06:40.594Z,100727.38
2023-05-01T01:07:47.154Z,100712.09
2023-05-01T01:08:36.223Z,100720.94
2023-05-01T01:09:43.193Z,100719.84
2023-05-01T01:10:32.279Z,100722.50
2023-05-01T01:11:22.146Z,100727.44
2023-05-01T01:12:34.542Z,100728.41
2023-05-01T01:13:27.133Z,100719.50
2023-05-01T01:14:22.255Z,100713.09
2023-05-01T01:15:09.147Z,100713.47
2023-05-01T01:16:13.960Z,100727.72
2023-05-01T01:17:28.208Z,100727.25
2023-05-01T01:18:27.295Z,100734.78
2023-05-01T01:19:50.115Z,100727.66
2023-05-01T01:21:00.152Z,100735.75
2023-05-01T01:21:38.411Z,100728.63
2023-05-01T01:22:31.183Z,100730.94
2023-05-01T01:23:41.823Z,100724.66
2023-05-01T01:24:47.153Z,100732.88
2023-05-01T01:26:14.135Z,100713.09
2023-05-01T01:28:05.119Z,100729.66
2023-05-01T01:29:56.397Z,100722.38
2023-05-01T01:31:22.179Z,100725.19
2023-05-01T01:33:17.162Z,100722.81
2023-05-01T01:34:34.089Z,100707.72
2023-05-01T01:35:39.137Z,100722.81
2023-05-01T01:36:55.146Z,100714.94
2023-05-01T01:38:08.113Z,100718.75
2023-05-01T01:39:23.132Z,100712.41
2023-05-01T01:40:22.120Z,100697.66
2023-05-01T01:41:27.119Z,100716.38
2023-05-01T01:42:17.196Z,100715.50
2023-05-01T01:42:58.198Z,100716.63
2023-05-01T01:43:50.124Z,100700.88
2023-05-01T01:44:40.243Z,100713.16
2023-05-01T01:45:36.133Z,100697.66
2023-05-01T01:46:16.621Z,100709.06
2023-05-01T01:47:07.081Z,100702.81
2023-05-01T01:47:48.314Z,100697.44
2023-05-01T01:48:49.130Z,100709.03
2023-05-01T01:49:45.105Z,100693.75
2023-05-01T01:50:40.131Z,100704.94
2023-05-01T01:51:36.097Z,100703.63
2023-05-01T01:52:30.115Z,100692.34
2023-05-01T01:53:12.118Z,100709.66
2023-05-01T01:53:57.167Z,100717.63
2023-05-01T01:54:44.128Z,100706.13
2023-05-01T01:55:25.373Z,100716.91
2023-05-01T01:56:07.121Z,100698.47
2023-05-01T01:56:49.289Z,100698.47
2023-05-01T01:57:31.129Z,100698.16
2023-05-01T01:58:19.185Z,100707.75
2023-05-01T01:59:15.108Z,100706.03
2023-05-01T02:00:10.109Z,100705.84
2023-05-01T02:01:04.170Z,100692.78
2023-05-01T02:01:58.128Z,100703.34
2023-05-01T02:02:54.218Z,100690.53
2023-05-01T02:03:42.188Z,100700.97
2023-05-01T02:04:17.282Z,100682.81
2023-05-01T02:05:06.083Z,100692.03
2023-05-01T02:05:41.175Z,100686.88
2023-05-01T02:06:29.111Z,100692.16
2023-05-01T02:07:03.155Z,100703.22
2023-05-01T02:07:55.106Z,100696.97
2023-05-01T02:08:30.320Z,100687.28
2023-05-01T02:09:13.124Z,100668.47
2023-05-01T02:09:53.242Z,100695.47
2023-05-01T02:10:34.083Z,100685.13
2023-05-01T02:11:15.393Z,100664.47
2023-05-01T02:11:57.147Z,100675.47
2023-05-01T02:12:38.184Z,100684.56
2023-05-01T02:13:19.068Z,100689.50
2023-05-01T02:14:01.874Z,100690.13
2023-05-01T02:14:44.108Z,100684.31
2023-05-01T02:15:25.902Z,100689.16
2023-05-01T02:16:08.180Z,100690.97
2023-05-01T02:16:49.156Z,100688.66
2023-05-01T02:17:30.193Z,100693.81
2023-05-01T02:18:10.359Z,100668.06
2023-05-01T02:18:53.063Z,100662.59
2023-05-01T02:19:33.182Z,100649.44
2023-05-01T02:20:17.137Z,100692.31
2023-05-01T02:20:58.674Z,100690.84
2023-05-01T02:21:41.088Z,100658.69
2023-05-01T02:22:23.310Z,100690.50
2023-05-01T02:23:04.087Z,100691.16
2023-05-01T02:23:45.176Z,100681.25
2023-05-01T02:24:29.137Z,100666.25
2023-05-01T02:25:10.585Z,100652.47
2023-05-01T02:25:51.089Z,100662.84
2023-05-01T02:26:33.156Z,100671.44
2023-05-01T02:27:22.112Z,100686.09
2023-05-01T02:28:12.215Z,100681.97
2023-05-01T02:28:52.077Z,100676.38
2023-05-01T02:29:32.404Z,100667.44
2023-05-01T02:30:14.070Z,100670.13
2023-05-01T02:31:01.110Z,100662.19
2023-05-01T02:31:55.151Z,100663.78
2023-05-01T02:32:49.142Z,100680.91
2023-05-01T02:33:43.083Z,100673.50
2023-05-01T02:34:37.082Z,100653.22
2023-05-01T02:35:32.063Z,100678.75
2023-05-01T02:36:20.164Z,100678.00
2023-05-01T02:36:54.151Z,100664.00
2023-05-01T02:37:41.094Z,100657.53
2023-05-01T02:38:15.157Z,100661.31
2023-05-01T02:39:03.039Z,100680.47
2023-05-01T02:39:37.241Z,100681.25
2023-05-01T02:40:24.092Z,100654.75
2023-05-01T02:41:02.367Z,100673.16
2023-05-01T02:41:44.101Z,100687.78
2023-05-01T02:42:25.595Z,100672.94
2023-05-01T02:43:08.053Z,100679.81
2023-05-01T02:43:48.365Z,100679.41
2023-05-01T02:44:30.047Z,100674.44
2023-05-01T02:45:14.348Z,100669.06
2023-05-01T02:45:55.172Z,100677.69
2023-05-01T02:46:38.271Z,100666.38
2023-05-01T02:47:24.149Z,100654.31
2023-05-01T02:48:06.176Z,100676.72
2023-05-01T02:48:47.041Z,100666.03
2023-05-01T02:49:28.186Z,100658.69
2023-05-01T02:50:09.071Z,100676.25
2023-05-01T02:50:51.139Z,100644.94
2023-05-01T02:51:32.052Z,100669.81
2023-05-01T02:52:12.119Z,100660.34
2023-05-01T02:52:53.127Z,100636.31
2023-05-01T02:53:33.542Z,100674.47
2023-05-01T02:54:14.055Z,100642.81
2023-05-01T02:54:55.161Z,100678.75
2023-05-01T02:55:36.120Z,100668.63
2023-05-01T02:56:16.140Z,100674.69
2023-05-01T02:56:57.025Z,100681.13
2023-05-01T02:57:41.345Z,100660.44
2023-05-01T02:58:26.074Z,100663.25
2023-05-01T02:59:06.473Z,100663.56
2023-05-01T02:59:49.039Z,100667.34
2023-05-01T03:00:29.918Z,100671.88
2023-05-01T03:01:11.161Z,100666.91
2023-05-01T03:01:51.901Z,100656.56
2023-05-01T03:02:32.142Z,100664.84
2023-05-01T03:03:12.205Z,100641.28
2023-05-01T03:03:52.083Z,100644.72
2023-05-01T03:04:32.190Z,100656.03
2023-05-01T03:05:14.032Z,100670.47
2023-05-01T03:05:54.559Z,100640.44
2023-05-01T03:06:36.110Z,100657.00
2023-05-01T03:07:16.153Z,100666.16
2023-05-01T03:07:58.039Z,100656.16
2023-05-01T03:08:38.351Z,100666.25
2023-05-01T03:09:19.043Z,100668.63
2023-05-01T03:09:59.295Z,100658.94
2023-05-01T03:10:40.075Z,100670.59
2023-05-01T03:11:21.166Z,100659.69
2023-05-01T03:12:01.031Z,100659.78
2023-05-01T03:12:41.891Z,100664.00
2023-05-01T03:13:23.052Z,100674.09
2023-05-01T03:14:03.147Z,100675.06
2023-05-01T03:14:43.037Z,100664.72
2023-05-01T03:15:23.108Z,100659.59
2023-05-01T03:16:03.093Z,100674.75
2023-05-01T03:16:43.497Z,100670.97
2023-05-01T03:17:24.079Z,100659.47
2023-05-01T03:18:04.168Z,100657.75
2023-05-01T03:18:44.003Z,100652.81
2023-05-01T03:19:24.198Z,100665.59
2023-05-01T03:20:04.041Z,100662.16
2023-05-01T03:20:44.117Z,100672.94
2023-05-01T03:21:25.042Z,100674.56
2023-05-01T03:22:05.122Z,100665.16
2023-05-01T03:22:46.033Z,100667.66
2023-05-01T03:23:27.987Z,100668.41
2023-05-01T03:24:09.006Z,100649.75
2023-05-01T03:24:50.700Z,100662.91
2023-05-01T03:25:32.051Z,100660.22
2023-05-01T03:26:12.102Z,100672.31
2023-05-01T03:26:52.014Z,100661.94
2023-05-01T03:27:32.192Z,100669.69
2023-05-01T03:28:13.037Z,100653.53
2023-05-01T03:28:53.095Z,100651.47
2023-05-01T03:29:34.073Z,100672.81
2023-05-01T03:30:15.898Z,100662.66
2023-05-01T03:30:59.037Z,100663.44
2023-05-01T03:31:39.118Z,100671.41
2023-05-01T03:32:20.129Z,100669.69
2023-05-01T03:33:00.178Z,100669.50
2023-05-01T03:33:41.025Z,100668.09
2023-05-01T03:34:21.080Z,100639.09
2023-05-01T03:35:01.131Z,100663.44
2023-05-01T03:35:41.131Z,100678.47
2023-05-01T03:36:21.014Z,100661.78
2023-05-01T03:37:01.318Z,100671.81
2023-05-01T03:37:42.985Z,100664.53
2023-05-01T03:38:24.080Z,100674.75
2023-05-01T03:39:03.993Z,100648.16
2023-05-01T03:39:44.081Z,100671.09
2023-05-01T03:40:25.065Z,100678.91
2023-05-01T03:41:06.338Z,100653.31
2023-05-01T03:41:47.021Z,100671.28
2023-05-01T03:42:27.158Z,100661.19
2023-05-01T03:43:07.001Z,100658.50
2023-05-01T03:43:47.100Z,100659.91
2023-05-01T03:44:27.994Z,100676.34
2023-05-01T03:45:08.207Z,100625.53
2023-05-01T03:45:49.134Z,100645.22
2023-05-01T03:46:29.264Z,100666.25
2023-05-01T03:47:09.016Z,100679.16
2023-05-01T03:47:49.154Z,100667.00
2023-05-01T03:48:30.000Z,100670.78
2023-05-01T03:49:10.078Z,100657.41
2023-05-01T03:49:50.972Z,100672.19
2023-05-01T03:50:32.006Z,100670.44
2023-05-01T03:51:12.966Z,100666.25
2023-05-01T03:51:53.109Z,100677.22
2023-05-01T03:52:33.060Z,100653.28
2023-05-01T03:53:13.530Z,100649.06
2023-05-01T03:53:53.987Z,100656.72
2023-05-01T03:54:34.067Z,100673.97
2023-05-01T03:55:14.973Z,100666.88
2023-05-01T03:55:55.218Z,100673.78
2023-05-01T03:56:34.974Z,100650.06
2023-05-01T03:57:15.166Z,100660.94
2023-05-01T03:57:56.059Z,100651.34
2023-05-01T03:58:36.210Z,100674.94
2023-05-01T03:59:16.000Z,100648.13
2023-05-01T03:59:56.388Z,100664.91
2023-05-01T04:00:37.985Z,100662.56
2023-05-01T04:01:33.042Z,100650.91
2023-05-01T04:02:27.074Z,100661.03
2023-05-01T04:03:15.057Z,100670.28
2023-05-01T04:03:49.410Z,100659.50
2023-05-01T04:04:36.086Z,100628.91
2023-05-01T04:05:10.151Z,100640.13
2023-05-01T04:05:57.099Z,100655.72
2023-05-01T04:06:31.176Z,100670.28
2023-05-01T04:07:19.020Z,100662.03
2023-05-01T04:07:53.070Z,100669.25
2023-05-01T04:08:39.998Z,100671.91
2023-05-01T04:09:14.058Z,100671.97
2023-05-01T04:10:00.978Z,100669.06
2023-05-01T04:10:36.006Z,100678.13
2023-05-01T04:11:22.999Z,100642.94
2023-05-01T04:11:57.092Z,100667.94
2023-05-01T04:12:44.021Z,100662.03
2023-05-01T04:13:18.061Z,100656.13
2023-05-01T04:14:05.003Z,100641.38
2023-05-01T04:14:39.043Z,100665.47
2023-05-01T04:15:28.981Z,100661.22
2023-05-01T04:16:03.067Z,100661.03
2023-05-01T04:16:49.978Z,100663.84
2023-05-01T04:17:24.165Z,100660.31
2023-05-01T04:18:11.174Z,100670.53
2023-05-01T04:18:45.087Z,100652.13
2023-05-01T04:19:25.012Z,100667.72
2023-05-01T04:20:08.089Z,100670.09
2023-05-01T04:20:47.983Z,100666.66
2023-05-01T04:21:28.078Z,100661.72
2023-05-01T04:22:09.009Z,100652.44
2023-05-01T04:22:49.137Z,100675.06
2023-05-01T04:23:28.984Z,100661.72
2023-05-01T04:24:09.125Z,100659.88
2023-05-01T04:24:49.008Z,100664.91
2023-05-01T04:25:29.379Z,100653.50
2023-05-01T04:26:10.951Z,100669.13
2023-05-01T04:26:51.061Z,100634.56
2023-05-01T04:27:32.006Z,100646.38
2023-05-01T04:28:12.433Z,100662.91
2023-05-01T04:28:52.957Z,100664.19
2023-05-01T04:29:33.039Z,100675.16
2023-05-01T04:30:13.957Z,100673.09
2023-05-01T04:30:54.036Z,100656.41
2023-05-01T04:31:33.961Z,100668.38
2023-05-01T04:32:15.040Z,100642.94
2023-05-01T04:32:54.992Z,100655.13
2023-05-01T04:33:35.237Z,100662.38
2023-05-01T04:34:14.996Z,100666.59
2023-05-01T04:34:55.031Z,100663.03
2023-05-01T04:35:34.976Z,100670.25
2023-05-01T04:36:15.055Z,100669.44
2023-05-01T04:36:56.008Z,100666.00
2023-05-01T04:37:36.980Z,100666.00
2023-05-01T04:38:16.941Z,100656.50
2023-05-01T04:38:57.351Z,100661.78
2023-05-01T04:39:37.943Z,100655.56
2023-05-01T04:40:19.212Z,100647.38
2023-05-01T04:40:58.955Z,100655.13
2023-05-01T04:41:39.053Z,100642.53
2023-05-01T04:42:18.936Z,100636.31
2023-05-01T04:42:59.059Z,100641.91
2023-05-01T04:43:39.023Z,100625.97
2023-05-01T04:44:19.072Z,100657.53
2023-05-01T04:44:58.958Z,100649.44
2023-05-01T04:45:39.097Z,100655.06
2023-05-01T04:46:19.991Z,100657.31
2023-05-01T04:47:00.053Z,100644.72
2023-05-01T04:47:39.980Z,100647.22
2023-05-01T04:48:20.033Z,100657.00
2023-05-01T04:48:59.937Z,100645.78
2023-05-01T04:49:40.039Z,100624.81
2023-05-01T04:50:20.945Z,100657.44
2023-05-01T04:51:01.229Z,100660.78
2023-05-01T04:51:40.981Z,100649.25
2023-05-01T04:52:21.023Z,100636.75
2023-05-01T04:53:00.926Z,100645.38
2023-05-01T04:53:41.083Z,100648.16
2023-05-01T04:54:20.989Z,100640.28
2023-05-01T04:55:01.010Z,100641.06
2023-05-01T04:55:42.910Z,100661.50
2023-05-01T04:56:22.998Z,100652.13
2023-05-01T04:57:02.951Z,100659.69
2023-05-01T04:57:42.998Z,100622.75
2023-05-01T04:58:22.920Z,100648.59
2023-05-01T04:59:02.998Z,100653.53
2023-05-01T04:59:42.969Z,100658.28
2023-05-01T05:00:24.046Z,100656.56
2023-05-01T05:01:05.968Z,100643.41
2023-05-01T05:01:46.122Z,100644.91
2023-05-01T05:02:26.190Z,100639.31
2023-05-01T05:03:07.242Z,100657.81
2023-05-01T05:03:50.019Z,100654.81
2023-05-01T05:04:31.050Z,100656.44
2023-05-01T05:05:11.946Z,100658.06
2023-05-01T05:05:52.009Z,100633.41
2023-05-01T05:06:32.972Z,100642.31
2023-05-01T05:07:13.352Z,100640.38
2023-05-01T05:07:53.923Z,100641.31
2023-05-01T05:08:34.540Z,100654.03
2023-05-01T05:09:15.374Z,100638.59
2023-05-01T05:09:57.348Z,100623.59
2023-05-01T05:10:39.099Z,100642.53
2023-05-01T05:11:20.021Z,100644.31
2023-05-01T05:11:59.935Z,100639.19
2023-05-01T05:12:40.068Z,100639.38
2023-05-01T05:13:25.147Z,100653.19
2023-05-01T05:14:05.032Z,100631.88
2023-05-01T05:14:44.916Z,100646.94
2023-05-01T05:15:24.974Z,100650.75
2023-05-01T05:16:04.946Z,100623.84
2023-05-01T05:16:45.039Z,100643.19
2023-05-01T05:17:24.901Z,100647.13
2023-05-01T05:18:05.010Z,100631.31
2023-05-01T05:18:44.962Z,100641.88
2023-05-01T05:19:25.098Z,100632.91
2023-05-01T05:20:04.898Z,100630.84
2023-05-01T05:20:46.199Z,100631.25
2023-05-01T05:21:25.875Z,100628.31
2023-05-01T05:22:08.016Z,100621.53
2023-05-01T05:22:47.896Z,100642.59
2023-05-01T05:23:27.981Z,100652.91
2023-05-01T05:24:07.910Z,100639.66
2023-05-01T05:24:47.979Z,100649.84
2023-05-01T05:25:28.891Z,100638.31
2023-05-01T05:26:08.973Z,100644.69
2023-05-01T05:26:48.882Z,100627.88
2023-05-01T05:27:29.027Z,100631.34
2023-05-01T05:28:08.887Z,100638.59
2023-05-01T05:28:49.226Z,100646.09
2023-05-01T05:29:28.909Z,100622.28
2023-05-01T05:30:13.095Z,100628.66
2023-05-01T05:30:53.888Z,100612.69
2023-05-01T05:31:34.114Z,100627.56
2023-05-01T05:32:14.937Z,100637.28
2023-05-01T05:32:55.170Z,100629.03
2023-05-01T05:33:35.871Z,100627.06
2023-05-01T05:34:16.029Z,100624.66
2023-05-01T05:34:55.888Z,100618.38
2023-05-01T05:35:36.447Z,100640.50
2023-05-01T05:36:17.893Z,100639.25
2023-05-01T05:36:58.030Z,100622.56
2023-05-01T05:37:38.877Z,100624.53
2023-05-01T05:38:19.017Z,100644.22
2023-05-01T05:38:58.883Z,100637.84
2023-05-01T05:39:38.966Z,100629.38
2023-05-01T05:40:19.885Z,100618.56
2023-05-01T05:41:00.868Z,100638.34
2023-05-01T05:41:40.870Z,100638.34
2023-05-01T05:42:20.991Z,100629.38
2023-05-01T05:43:00.915Z,100639.81
2023-05-01T05:43:40.972Z,100626.31
2023-05-01T05:44:21.875Z,100631.94
2023-05-01T05:45:02.002Z,100619.44
2023-05-01T05:45:42.938Z,100630.59
2023-05-01T05:46:23.024Z,100630.38
2023-05-01T05:47:03.005Z,100615.25
2023-05-01T05:47:45.092Z,100631.44
2023-05-01T05:48:24.910Z,100614.88
2023-05-01T05:49:05.026Z,100619.06
2023-05-01T05:49:44.900Z,100637.34
2023-05-01T05:50:38.875Z,100620.53
2023-05-01T05:51:19.897Z,100638.44
2023-05-01T05:51:59.998Z,100620.88
2023-05-01T05:52:39.846Z,100634.75
2023-05-01T05:53:19.980Z,100632.91
2023-05-01T05:53:59.851Z,100627.75
2023-05-01T05:54:40.522Z,100628.72
2023-05-01T05:55:21.879Z,100628.72
2023-05-01T05:56:02.318Z,100624.78
2023-05-01T05:56:42.898Z,100604.75
2023-05-01T05:57:23.152Z,100618.88
2023-05-01T05:58:03.868Z,100635.09
2023-05-01T05:58:43.976Z,100621.94
2023-05-01T05:59:24.853Z,100620.00
2023-05-01T06:00:05.552Z,100637.75
2023-05-01T06:00:45.848Z,100625.81
2023-05-01T06:01:26.122Z,100626.44
2023-05-01T06:02:06.985Z,100637.72
2023-05-01T06:02:48.635Z,100620.78
2023-05-01T06:03:30.039Z,100629.34
2023-05-01T06:04:11.401Z,100631.94
2023-05-01T06:04:52.850Z,100637.94
2023-05-01T06:05:33.872Z,100628.38
2023-05-01T06:06:13.905Z,100637.41
2023-05-01T06:06:55.162Z,100624.88
2023-05-01T06:07:36.070Z,100629.78
2023-05-01T06:08:16.022Z,100625.22
2023-05-01T06:08:55.859Z,100631.25
2023-05-01T06:09:36.518Z,100635.94
2023-05-01T06:10:17.856Z,100635.03
2023-05-01T06:10:58.885Z,100616.16
2023-05-01T06:11:39.861Z,100639.06
2023-05-01T06:12:19.947Z,100615.72
2023-05-01T06:13:04.612Z,100632.56
2023-05-01T06:13:55.261Z,100627.66
2023-05-01T06:14:34.840Z,100630.72
2023-05-01T06:15:16.996Z,100643.09
2023-05-01T06:15:57.974Z,100636.31
2023-05-01T06:16:38.327Z,100621.44
2023-05-01T06:17:19.863Z,100629.50
2023-05-01T06:18:06.931Z,100633.53
2023-05-01T06:19:01.852Z,100629.94
2023-05-01T06:19:56.084Z,100617.13
2023-05-01T06:20:49.867Z,100624.84
2023-05-01T06:21:43.891Z,100635.72
2023-05-01T06:22:37.881Z,100637.56
2023-05-01T06:23:25.865Z,100628.59
2023-05-01T06:23:59.944Z,100632.47
2023-05-01T06:24:46.836Z,100620.38
2023-05-01T06:25:20.941Z,100639.38
2023-05-01T06:26:07.868Z,100630.06
2023-05-01T06:26:41.914Z,100629.06
2023-05-01T06:27:28.843Z,100619.63
2023-05-01T06:28:03.903Z,100630.53
2023-05-01T06:28:50.894Z,100629.72
2023-05-01T06:29:24.934Z,100617.56
2023-05-01T06:30:12.840Z,100629.72
2023-05-01T06:30:47.665Z,100631.16
2023-05-01T06:31:34.843Z,100630.91
2023-05-01T06:32:08.980Z,100621.31
2023-05-01T06:32:56.857Z,100621.50
2023-05-01T06:33:31.035Z,100629.84
2023-05-01T06:34:10.836Z,100615.66
2023-05-01T06:34:50.934Z,100618.06
2023-05-01T06:35:31.864Z,100622.97
2023-05-01T06:36:13.092Z,100619.72
2023-05-01T06:36:52.838Z,100620.72
2023-05-01T06:37:32.918Z,100612.97
2023-05-01T06:38:12.835Z,100618.00
2023-05-01T06:38:52.923Z,100619.06
2023-05-01T06:39:32.852Z,100625.75
2023-05-01T06:40:16.927Z,100602.44
2023-05-01T06:40:56.886Z,100629.91
2023-05-01T06:41:38.588Z,100625.34
2023-05-01T06:42:22.839Z,100626.81
2023-05-01T06:43:02.961Z,100629.09
2023-05-01T06:43:42.811Z,100621.69
2023-05-01T06:44:22.913Z,100618.50
2023-05-01T06:45:02.841Z,100619.81
2023-05-01T06:45:42.935Z,100624.41
2023-05-01T06:46:25.842Z,100598.22
2023-05-01T06:47:19.869Z,100621.13
2023-05-01T06:48:14.000Z,100617.72
2023-05-01T06:49:07.844Z,100622.28
2023-05-01T06:50:04.414Z,100613.47
2023-05-01T06:50:45.819Z,100614.91
2023-05-01T06:51:25.908Z,100616.34
2023-05-01T06:52:08.813Z,100627.09
2023-05-01T06:52:50.981Z,100612.38
2023-05-01T06:53:30.802Z,100604.91
2023-05-01T06:54:11.023Z,100599.50
2023-05-01T06:54:50.828Z,100620.09
2023-05-01T06:55:30.873Z,100606.69
2023-05-01T06:56:04.892Z,100593.22
2023-05-01T06:56:51.805Z,100605.09
2023-05-01T06:57:25.907Z,100604.69
2023-05-01T06:58:23.490Z,100607.00
2023-05-01T06:58:57.880Z,100613.97
2023-05-01T06:59:44.856Z,100609.56
2023-05-01T07:00:19.967Z,100592.81
2023-05-01T07:01:00.899Z,100602.16
2023-05-01T07:01:42.073Z,100596.00
2023-05-01T07:02:21.837Z,100609.72
2023-05-01T07:03:03.517Z,100605.72
2023-05-01T07:03:43.893Z,100604.44
2023-05-01T07:04:23.888Z,100603.59
2023-05-01T07:05:03.851Z,100600.19
2023-05-01T07:05:46.200Z,100597.00
2023-05-01T07:06:25.858Z,100603.63
2023-05-01T07:07:05.955Z,100590.75
2023-05-01T07:07:58.023Z,100600.19
2023-05-01T07:08:41.890Z,100597.72
2023-05-01T07:09:21.812Z,100591.63
2023-05-01T07:10:01.896Z,100598.16
2023-05-01T07:10:42.810Z,100589.91
2023-05-01T07:11:23.854Z,100593.75
2023-05-01T07:12:05.892Z,100585.91
2023-05-01T07:12:46.406Z,100598.16
2023-05-01T07:13:26.808Z,100585.75
2023-05-01T07:14:09.429Z,100596.47
2023-05-01T07:14:50.833Z,100597.91
2023-05-01T07:15:30.944Z,100573.91
2023-05-01T07:16:11.851Z,100588.50
2023-05-01T07:16:51.989Z,100596.19
2023-05-01T07:17:32.897Z,100595.59
2023-05-01T07:18:13.366Z,100597.34
2023-05-01T07:18:54.775Z,100571.47
2023-05-01T07:19:48.801Z,100598.16
2023-05-01T07:20:42.799Z,100593.47
2023-05-01T07:21:36.821Z,100580.63
2023-05-01T07:22:30.798Z,100586.47
2023-05-01T07:23:11.816Z,100582.75
2023-05-01T07:23:51.918Z,100594.19
2023-05-01T07:24:32.774Z,100590.06
2023-05-01T07:25:14.205Z,100593.59
2023-05-01T07:25:54.979Z,100583.63
2023-05-01T07:26:35.182Z,100578.03
2023-05-01T07:27:16.788Z,100590.88
2023-05-01T07:27:56.841Z,100587.34
2023-05-01T07:28:30.960Z,100593.19
2023-05-01T07:29:19.778Z,100585.31
2023-05-01T07:29:54.230Z,100584.75
2023-05-01T07:30:44.807Z,100585.59
2023-05-01T07:31:18.944Z,100591.06
2023-05-01T07:32:05.897Z,100587.06
2023-05-01T07:32:40.812Z,100578.91
2023-05-01T07:33:20.878Z,100578.78
2023-05-01T07:34:00.950Z,100580.03
2023-05-01T07:34:40.810Z,100556.91
2023-05-01T07:35:20.951Z,100590.75
2023-05-01T07:36:00.780Z,100593.59
2023-05-01T07:36:41.628Z,100590.19
2023-05-01T07:37:21.767Z,100587.63
2023-05-01T07:38:01.849Z,100576.19
2023-05-01T07:38:42.839Z,100584.16
2023-05-01T07:39:22.875Z,100577.03
2023-05-01T07:40:04.808Z,100581.31
2023-05-01T07:40:44.895Z,100587.16
2023-05-01T07:41:24.809Z,100594.44
2023-05-01T07:42:04.856Z,100572.72
2023-05-01T07:42:47.206Z,100578.31
2023-05-01T07:43:27.840Z,100587.59
2023-05-01T07:44:08.771Z,100555.03
2023-05-01T07:44:51.839Z,100585.28
2023-05-01T07:45:34.954Z,100591.56
2023-05-01T07:46:17.178Z,100570.16
2023-05-01T07:46:59.838Z,100588.59
2023-05-01T07:47:42.047Z,100572.72
2023-05-01T07:48:21.759Z,100560.84
2023-05-01T07:49:15.789Z,100554.47
2023-05-01T07:50:09.792Z,100585.72
2023-05-01T07:51:04.812Z,100583.56
2023-05-01T07:51:58.893Z,100579.13
2023-05-01T07:52:52.782Z,100581.28
2023-05-01T07:53:48.843Z,100580.00
2023-05-01T07:54:35.816Z,100578.84
2023-05-01T07:55:09.899Z,100558.44
2023-05-01T07:55:57.074Z,100569.69
2023-05-01T07:56:31.952Z,100568.56
2023-05-01T07:57:18.755Z,100574.16
2023-05-01T07:57:52.818Z,100575.44
2023-05-01T07:58:39.797Z,100574.44
2023-05-01T07:59:16.047Z,100573.16
2023-05-01T08:00:04.804Z,100567.53
2023-05-01T08:00:47.604Z,100575.13
2023-05-01T08:01:27.789Z,100565.69
2023-05-01T08:02:08.064Z,100568.94
2023-05-01T08:02:48.858Z,100562.38
2023-05-01T08:03:29.718Z,100564.69
2023-05-01T08:04:09.895Z,100557.25
2023-05-01T08:04:51.127Z,100568.25
2023-05-01T08:05:30.773Z,100552.69
2023-05-01T08:06:11.989Z,100558.13
2023-05-01T08:06:51.920Z,100561.56
2023-05-01T08:07:35.108Z,100565.97
2023-05-01T08:08:17.735Z,100552.38
2023-05-01T08:08:57.923Z,100568.22
2023-05-01T08:09:38.749Z,100553.81
2023-05-01T08:10:21.825Z,100549.50
2023-05-01T08:11:02.763Z,100565.19
2023-05-01T08:11:42.806Z,100558.66
2023-05-01T08:12:22.755Z,100562.97
2023-05-01T08:13:02.876Z,100564.09